RYR9XU EGCC-EDDH
Flight info
| Callsign | RYR9XU |
|---|---|
| Flight time | N/A |
| Altitude | 33000 |
| Route | SONEX L975 DESIG L603 LAMSO DCT VALAM DCT PABCO M105 RIBSO RIBSO3P |
| Aircraft | B737/M-SDE2E3FGHIRWXY/LB1 |
Departure
| Time | 2026-05-04 15:36 |
|---|---|
| Airport | Manchester Airport (EGCC) |
Arrival
| Time | N/A |
|---|---|
| Airport | Hamburg Helmut Schmidt Airport (EDDH) |
| Time | Latitude | Longitude | Altitude | Speed | Heading |
|---|---|---|---|---|---|
| 2026-05-04 14:56 | 53.36118 | -2.26752 | 254 ft | 0 kts | 315° |
| 2026-05-04 15:19 | 53.36113 | -2.26744 | 254 ft | 4 kts | 312° |
| 2026-05-04 15:20 | 53.36098 | -2.26708 | 254 ft | 4 kts | 294° |
| 2026-05-04 15:20 | 53.36089 | -2.26666 | 254 ft | 4 kts | 277° |
| 2026-05-04 15:20 | 53.36089 | -2.26621 | 254 ft | 4 kts | 261° |
| 2026-05-04 15:20 | 53.36096 | -2.26579 | 254 ft | 4 kts | 240° |
| 2026-05-04 15:21 | 53.36102 | -2.26563 | 254 ft | 1 kts | 231° |
| 2026-05-04 15:29 | 53.36101 | -2.26565 | 254 ft | 1 kts | 231° |
| 2026-05-04 15:30 | 53.36014 | -2.26747 | 254 ft | 6 kts | 198° |
| 2026-05-04 15:30 | 53.35985 | -2.26738 | 254 ft | 2 kts | 162° |
| 2026-05-04 15:31 | 53.35939 | -2.26716 | 255 ft | 8 kts | 167° |
| 2026-05-04 15:31 | 53.35879 | -2.26698 | 257 ft | 9 kts | 170° |
| 2026-05-04 15:32 | 53.35648 | -2.26631 | 260 ft | 12 kts | 170° |
| 2026-05-04 15:32 | 53.35522 | -2.26724 | 255 ft | 10 kts | 226° |
| 2026-05-04 15:33 | 53.35432 | -2.26908 | 251 ft | 12 kts | 231° |
| 2026-05-04 15:34 | 53.35295 | -2.27176 | 246 ft | 10 kts | 217° |
| 2026-05-04 15:34 | 53.35217 | -2.27228 | 244 ft | 14 kts | 191° |
| 2026-05-04 15:34 | 53.35114 | -2.27259 | 242 ft | 11 kts | 191° |
| 2026-05-04 15:35 | 53.35008 | -2.27327 | 239 ft | 0 kts | 223° |
| 2026-05-04 15:35 | 53.35001 | -2.27340 | 239 ft | 10 kts | 226° |
| 2026-05-04 15:36 | 53.34257 | -2.28881 | 218 ft | 152 kts | 231° |
| 2026-05-04 15:36 | 53.33539 | -2.30432 | 594 ft | 171 kts | 232° |
| 2026-05-04 15:36 | 53.32837 | -2.31886 | 1675 ft | 152 kts | 230° |
| 2026-05-04 15:37 | 53.32134 | -2.33275 | 2328 ft | 160 kts | 236° |
| 2026-05-04 15:37 | 53.31666 | -2.35139 | 2645 ft | 189 kts | 261° |
| 2026-05-04 15:37 | 53.31754 | -2.37463 | 2887 ft | 213 kts | 288° |
| 2026-05-04 15:37 | 53.32564 | -2.39620 | 3254 ft | 231 kts | 318° |
| 2026-05-04 15:38 | 53.33994 | -2.40875 | 3958 ft | 237 kts | 345° |
| 2026-05-04 15:38 | 53.35611 | -2.41530 | 4543 ft | 251 kts | 345° |
| 2026-05-04 15:38 | 53.37354 | -2.42360 | 5099 ft | 267 kts | 342° |
| 2026-05-04 15:38 | 53.39127 | -2.43291 | 6192 ft | 268 kts | 341° |
| 2026-05-04 15:39 | 53.40914 | -2.44261 | 7224 ft | 271 kts | 341° |
| 2026-05-04 15:39 | 53.42724 | -2.45227 | 8222 ft | 275 kts | 343° |
| 2026-05-04 15:39 | 53.46315 | -2.43648 | 10104 ft | 289 kts | 47° |
| 2026-05-04 15:40 | 53.47225 | -2.40692 | 10963 ft | 294 kts | 76° |
| 2026-05-04 15:40 | 53.47596 | -2.37273 | 11847 ft | 299 kts | 81° |
| 2026-05-04 15:40 | 53.47931 | -2.33805 | 12717 ft | 304 kts | 80° |
| 2026-05-04 15:40 | 53.48313 | -2.30283 | 13624 ft | 309 kts | 79° |
| 2026-05-04 15:41 | 53.48735 | -2.26701 | 14477 ft | 313 kts | 78° |
| 2026-05-04 15:41 | 53.49172 | -2.23106 | 15385 ft | 315 kts | 78° |
| 2026-05-04 15:41 | 53.49579 | -2.19479 | 16291 ft | 318 kts | 80° |
| 2026-05-04 15:41 | 53.49965 | -2.15788 | 17172 ft | 322 kts | 80° |
| 2026-05-04 15:42 | 53.50349 | -2.12085 | 18036 ft | 326 kts | 80° |
| 2026-05-04 15:42 | 53.50739 | -2.08332 | 18689 ft | 328 kts | 80° |
| 2026-05-04 15:42 | 53.51136 | -2.04551 | 19018 ft | 328 kts | 80° |
| 2026-05-04 15:42 | 53.51533 | -2.00753 | 19371 ft | 331 kts | 80° |
| 2026-05-04 15:43 | 53.51939 | -1.96853 | 19600 ft | 350 kts | 80° |
| 2026-05-04 15:43 | 53.52343 | -1.92697 | 19780 ft | 372 kts | 84° |
| 2026-05-04 15:43 | 53.52368 | -1.88218 | 19938 ft | 393 kts | 95° |
| 2026-05-04 15:43 | 53.51859 | -1.83650 | 20323 ft | 405 kts | 105° |
| 2026-05-04 15:44 | 53.51056 | -1.79119 | 20969 ft | 409 kts | 107° |
| 2026-05-04 15:44 | 53.50198 | -1.74562 | 21745 ft | 410 kts | 107° |
| 2026-05-04 15:44 | 53.49346 | -1.69987 | 22466 ft | 412 kts | 107° |
| 2026-05-04 15:44 | 53.48513 | -1.65366 | 23161 ft | 415 kts | 106° |
| 2026-05-04 15:45 | 53.47685 | -1.60707 | 23763 ft | 418 kts | 106° |
| 2026-05-04 15:45 | 53.46857 | -1.56030 | 24298 ft | 421 kts | 106° |
| 2026-05-04 15:45 | 53.46009 | -1.51286 | 24835 ft | 423 kts | 105° |
| 2026-05-04 15:45 | 53.45157 | -1.46543 | 25364 ft | 426 kts | 105° |
| 2026-05-04 15:46 | 53.44297 | -1.41769 | 25860 ft | 429 kts | 105° |
| 2026-05-04 15:46 | 53.43435 | -1.36984 | 26335 ft | 431 kts | 105° |
| 2026-05-04 15:46 | 53.42562 | -1.32151 | 26824 ft | 434 kts | 105° |
| 2026-05-04 15:46 | 53.41693 | -1.27361 | 27293 ft | 436 kts | 105° |
| 2026-05-04 15:47 | 53.40803 | -1.22452 | 27754 ft | 439 kts | 105° |
| 2026-05-04 15:47 | 53.39914 | -1.17565 | 28198 ft | 442 kts | 105° |
| 2026-05-04 15:47 | 53.39010 | -1.12615 | 28634 ft | 444 kts | 105° |
| 2026-05-04 15:47 | 53.38101 | -1.07652 | 29060 ft | 447 kts | 105° |
| 2026-05-04 15:48 | 53.37188 | -1.02684 | 29590 ft | 446 kts | 105° |
| 2026-05-04 15:48 | 53.36277 | -0.97739 | 30252 ft | 442 kts | 105° |
| 2026-05-04 15:48 | 53.34476 | -0.87990 | 31239 ft | 440 kts | 105° |
| 2026-05-04 15:49 | 53.33568 | -0.83093 | 31640 ft | 440 kts | 105° |
| 2026-05-04 15:49 | 53.32664 | -0.78220 | 32076 ft | 440 kts | 106° |
| 2026-05-04 15:49 | 53.31754 | -0.73338 | 32542 ft | 439 kts | 106° |
| 2026-05-04 15:49 | 53.30842 | -0.68457 | 32976 ft | 438 kts | 106° |
| 2026-05-04 15:50 | 53.29004 | -0.58668 | 33057 ft | 444 kts | 106° |
| 2026-05-04 15:50 | 53.27146 | -0.48811 | 33038 ft | 440 kts | 107° |
| 2026-05-04 15:51 | 53.25315 | -0.39150 | 33057 ft | 440 kts | 107° |
| 2026-05-04 15:51 | 53.23456 | -0.29400 | 33054 ft | 441 kts | 107° |
| 2026-05-04 15:52 | 53.21581 | -0.19621 | 33048 ft | 442 kts | 107° |
| 2026-05-04 15:52 | 53.19694 | -0.09816 | 33050 ft | 444 kts | 107° |
| 2026-05-04 15:53 | 53.17799 | -0.00024 | 33044 ft | 445 kts | 108° |
| 2026-05-04 15:53 | 53.15889 | 0.09783 | 33046 ft | 447 kts | 108° |
| 2026-05-04 15:54 | 53.13963 | 0.19619 | 33048 ft | 448 kts | 108° |
| 2026-05-04 15:54 | 53.12015 | 0.29531 | 33045 ft | 449 kts | 108° |
| 2026-05-04 15:55 | 53.10062 | 0.39420 | 33046 ft | 450 kts | 109° |
| 2026-05-04 15:55 | 53.08098 | 0.49311 | 33040 ft | 451 kts | 109° |
| 2026-05-04 15:56 | 53.06129 | 0.59175 | 33045 ft | 452 kts | 109° |
| 2026-05-04 15:56 | 53.04128 | 0.69152 | 33043 ft | 454 kts | 109° |
| 2026-05-04 15:57 | 53.02135 | 0.79040 | 33045 ft | 455 kts | 109° |
| 2026-05-04 15:57 | 53.00110 | 0.89046 | 33038 ft | 456 kts | 110° |
| 2026-05-04 15:58 | 52.98079 | 0.99047 | 33041 ft | 457 kts | 109° |
| 2026-05-04 15:58 | 52.96682 | 1.09362 | 33044 ft | 460 kts | 102° |
| 2026-05-04 15:59 | 52.95540 | 1.19756 | 33042 ft | 461 kts | 102° |
| 2026-05-04 15:59 | 52.94366 | 1.30213 | 33044 ft | 462 kts | 102° |
| 2026-05-04 16:00 | 52.93149 | 1.40678 | 33044 ft | 463 kts | 103° |
| 2026-05-04 16:00 | 52.91907 | 1.51162 | 33046 ft | 463 kts | 103° |
| 2026-05-04 16:01 | 52.90661 | 1.61592 | 33041 ft | 464 kts | 103° |
| 2026-05-04 16:01 | 52.89400 | 1.72077 | 33041 ft | 465 kts | 103° |
| 2026-05-04 16:02 | 52.88122 | 1.82625 | 33037 ft | 465 kts | 103° |
| 2026-05-04 16:03 | 52.86201 | 1.98323 | 33028 ft | 466 kts | 103° |
| 2026-05-04 16:03 | 52.84903 | 2.08832 | 33032 ft | 466 kts | 104° |
| 2026-05-04 16:04 | 52.83593 | 2.19346 | 33039 ft | 466 kts | 104° |
| 2026-05-04 16:04 | 52.81614 | 2.35097 | 33026 ft | 466 kts | 104° |
| 2026-05-04 16:05 | 52.80283 | 2.45603 | 33021 ft | 466 kts | 104° |
| 2026-05-04 16:06 | 52.78276 | 2.61254 | 33021 ft | 466 kts | 105° |
| 2026-05-04 16:07 | 52.75556 | 2.82220 | 33018 ft | 466 kts | 105° |
| 2026-05-04 16:08 | 52.73835 | 3.03433 | 33016 ft | 473 kts | 87° |
| 2026-05-04 16:09 | 52.77368 | 3.30062 | 33020 ft | 477 kts | 79° |
| 2026-05-04 16:10 | 52.80231 | 3.51497 | 33026 ft | 478 kts | 80° |
| 2026-05-04 16:11 | 52.83009 | 3.72913 | 33014 ft | 479 kts | 80° |
| 2026-05-04 16:12 | 52.87152 | 4.05396 | 33000 ft | 481 kts | 81° |
| 2026-05-04 16:13 | 52.89861 | 4.27054 | 33006 ft | 482 kts | 81° |
| 2026-05-04 16:14 | 52.92544 | 4.48852 | 33017 ft | 484 kts | 81° |
| 2026-05-04 16:16 | 52.95636 | 4.74424 | 33018 ft | 485 kts | 82° |
| 2026-05-04 16:17 | 52.98895 | 5.01918 | 33014 ft | 486 kts | 82° |
| 2026-05-04 16:18 | 53.01456 | 5.23942 | 33007 ft | 487 kts | 82° |
| 2026-05-04 16:19 | 53.04114 | 5.51698 | 33015 ft | 485 kts | 88° |
| 2026-05-04 16:20 | 53.05750 | 5.79563 | 33018 ft | 486 kts | 88° |
| 2026-05-04 16:22 | 53.07452 | 6.07546 | 33004 ft | 486 kts | 88° |
| 2026-05-04 16:23 | 53.09399 | 6.41070 | 32997 ft | 486 kts | 88° |
| 2026-05-04 16:25 | 53.11256 | 6.74727 | 32994 ft | 486 kts | 89° |
| 2026-05-04 16:26 | 53.13302 | 7.13951 | 32983 ft | 487 kts | 88° |
| 2026-05-04 16:27 | 53.14751 | 7.25012 | 33001 ft | 493 kts | 73° |
| 2026-05-04 16:28 | 53.18091 | 7.41253 | 32986 ft | 494 kts | 74° |
| 2026-05-04 16:29 | 53.25437 | 7.79437 | 32988 ft | 494 kts | 74° |
| 2026-05-04 16:31 | 53.30632 | 8.06808 | 32922 ft | 495 kts | 74° |
| 2026-05-04 16:31 | 53.33895 | 8.23320 | 30396 ft | 500 kts | 71° |
| 2026-05-04 16:32 | 53.37729 | 8.39503 | 27785 ft | 489 kts | 70° |
| 2026-05-04 16:33 | 53.40142 | 8.49998 | 26375 ft | 477 kts | 70° |
| 2026-05-04 16:33 | 53.42737 | 8.60090 | 25024 ft | 466 kts | 66° |
| 2026-05-04 16:34 | 53.45447 | 8.69841 | 23677 ft | 457 kts | 66° |
| 2026-05-04 16:34 | 53.46789 | 8.74735 | 22884 ft | 453 kts | 66° |
| 2026-05-04 16:35 | 53.50583 | 8.88850 | 20853 ft | 436 kts | 66° |
| 2026-05-04 16:35 | 53.55023 | 9.01808 | 18842 ft | 423 kts | 47° |
| 2026-05-04 16:36 | 53.57148 | 9.05193 | 18150 ft | 418 kts | 36° |
| 2026-05-04 16:36 | 53.61849 | 9.10799 | 16706 ft | 410 kts | 33° |
| 2026-05-04 16:37 | 53.66488 | 9.16228 | 15369 ft | 402 kts | 34° |
| 2026-05-04 16:37 | 53.68772 | 9.18943 | 14719 ft | 399 kts | 34° |
| 2026-05-04 16:37 | 53.73285 | 9.24364 | 13347 ft | 394 kts | 34° |
| 2026-05-04 16:38 | 53.77677 | 9.29663 | 11985 ft | 387 kts | 35° |
| 2026-05-04 16:39 | 53.82129 | 9.40105 | 10719 ft | 360 kts | 79° |
| 2026-05-04 16:39 | 53.83070 | 9.48116 | 10312 ft | 334 kts | 82° |
| 2026-05-04 16:40 | 53.83917 | 9.55593 | 9959 ft | 309 kts | 81° |
| 2026-05-04 16:40 | 53.84719 | 9.62424 | 9661 ft | 295 kts | 81° |
| 2026-05-04 16:41 | 53.85531 | 9.69267 | 9335 ft | 297 kts | 81° |
| 2026-05-04 16:41 | 53.86717 | 9.79438 | 8820 ft | 280 kts | 87° |
| 2026-05-04 16:42 | 53.86176 | 9.88696 | 8432 ft | 262 kts | 102° |
| 2026-05-04 16:43 | 53.85710 | 9.94855 | 8147 ft | 263 kts | 102° |
| 2026-05-04 16:43 | 53.85265 | 10.00955 | 7858 ft | 261 kts | 101° |
| 2026-05-04 16:43 | 53.85044 | 10.04014 | 7723 ft | 260 kts | 101° |
| 2026-05-04 16:44 | 53.84175 | 10.16052 | 7153 ft | 255 kts | 101° |
| 2026-05-04 16:45 | 53.85081 | 10.21774 | 6897 ft | 261 kts | 54° |
| 2026-05-04 16:46 | 53.88602 | 10.28786 | 6491 ft | 263 kts | 50° |
| 2026-05-04 16:46 | 53.90969 | 10.33529 | 6198 ft | 264 kts | 51° |
| 2026-05-04 16:47 | 53.93320 | 10.38306 | 5905 ft | 264 kts | 51° |
| 2026-05-04 16:47 | 53.95192 | 10.43518 | 5578 ft | 257 kts | 87° |
| 2026-05-04 16:48 | 53.92967 | 10.50696 | 5242 ft | 230 kts | 145° |
| 2026-05-04 16:48 | 53.91622 | 10.52047 | 5062 ft | 223 kts | 170° |
| 2026-05-04 16:49 | 53.88787 | 10.50966 | 4895 ft | 216 kts | 219° |
| 2026-05-04 16:49 | 53.86761 | 10.47124 | 4646 ft | 220 kts | 230° |
| 2026-05-04 16:50 | 53.84837 | 10.43117 | 4386 ft | 218 kts | 229° |
| 2026-05-04 16:50 | 53.82917 | 10.39183 | 4157 ft | 216 kts | 229° |
| 2026-05-04 16:51 | 53.81011 | 10.35315 | 3914 ft | 211 kts | 229° |
| 2026-05-04 16:51 | 53.80082 | 10.33450 | 3815 ft | 203 kts | 229° |
| 2026-05-04 16:51 | 53.78348 | 10.29838 | 3583 ft | 189 kts | 230° |
| 2026-05-04 16:52 | 53.76688 | 10.26429 | 3419 ft | 191 kts | 230° |
| 2026-05-04 16:52 | 53.75825 | 10.24688 | 3313 ft | 194 kts | 229° |
| 2026-05-04 16:53 | 53.74140 | 10.21283 | 3063 ft | 185 kts | 230° |
| 2026-05-04 16:53 | 53.71862 | 10.16691 | 2684 ft | 154 kts | 230° |
| 2026-05-04 16:54 | 53.71206 | 10.15360 | 2470 ft | 146 kts | 230° |
| 2026-05-04 16:55 | 53.68864 | 10.10627 | 1794 ft | 124 kts | 230° |
| 2026-05-04 16:55 | 53.67757 | 10.08383 | 1461 ft | 125 kts | 229° |
| 2026-05-04 16:56 | 53.66646 | 10.06136 | 1080 ft | 129 kts | 231° |
| 2026-05-04 16:56 | 53.64885 | 10.02566 | 494 ft | 136 kts | 235° |
| 2026-05-04 16:57 | 53.64279 | 10.01332 | 268 ft | 138 kts | 235° |